createdAt,value
2019-01-17T00:02:02.803Z,9.52
2019-01-17T00:04:47.502Z,9.45
2019-01-17T00:07:21.482Z,9.45
2019-01-17T00:09:49.251Z,9.47
2019-01-17T00:12:17.030Z,9.46
2019-01-17T00:14:47.358Z,9.52
2019-01-17T00:17:32.000Z,9.49
2019-01-17T00:20:12.139Z,9.44
2019-01-17T00:22:45.655Z,9.47
2019-01-17T00:25:30.143Z,9.45
2019-01-17T00:27:57.973Z,9.33
2019-01-17T00:30:42.216Z,9.31
2019-01-17T00:33:10.023Z,9.32
2019-01-17T00:35:40.746Z,9.29
2019-01-17T00:38:17.806Z,9.25
2019-01-17T00:40:57.539Z,9.14
2019-01-17T00:43:40.397Z,8.98
2019-01-17T00:46:08.182Z,8.87
2019-01-17T00:48:38.799Z,8.85
2019-01-17T00:51:23.117Z,8.87
2019-01-17T00:53:50.894Z,9.02
2019-01-17T00:56:19.384Z,9.00
2019-01-17T00:58:56.966Z,8.97
2019-01-17T01:01:39.645Z,8.94
2019-01-17T01:04:10.198Z,8.87
2019-01-17T01:06:37.979Z,8.88
2019-01-17T01:09:24.116Z,8.80
2019-01-17T01:11:54.652Z,8.77
2019-01-17T01:14:22.403Z,8.78
2019-01-17T01:16:59.199Z,8.67
2019-01-17T01:19:26.994Z,8.75
2019-01-17T01:22:11.266Z,8.76
2019-01-17T01:24:41.802Z,8.72
2019-01-17T01:27:12.728Z,8.75
2019-01-17T01:29:49.494Z,8.65
2019-01-17T01:32:23.076Z,8.70
2019-01-17T01:34:53.839Z,8.64
2019-01-17T01:37:33.767Z,8.63
2019-01-17T01:40:04.303Z,8.63
2019-01-17T01:42:50.791Z,8.53
2019-01-17T01:45:30.775Z,8.55
2019-01-17T01:47:58.568Z,8.51
2019-01-17T01:50:38.468Z,8.48
2019-01-17T01:53:07.310Z,8.51
2019-01-17T01:55:33.179Z,8.44
2019-01-17T01:57:59.569Z,8.41
2019-01-17T02:00:25.787Z,8.43
2019-01-17T02:02:51.649Z,8.45
2019-01-17T02:05:17.508Z,8.58
2019-01-17T02:07:43.409Z,8.51
2019-01-17T02:10:09.784Z,8.55
2019-01-17T02:12:35.657Z,8.48
2019-01-17T02:15:01.637Z,8.41
2019-01-17T02:17:27.760Z,8.42
2019-01-17T02:19:54.327Z,8.41
2019-01-17T02:22:20.254Z,8.33
2019-01-17T02:24:46.175Z,8.32
2019-01-17T02:27:12.043Z,8.35
2019-01-17T02:29:37.936Z,8.25
2019-01-17T02:32:03.819Z,8.22
2019-01-17T02:34:29.808Z,8.27
2019-01-17T02:36:55.788Z,8.31
2019-01-17T02:39:21.661Z,8.28
2019-01-17T02:41:47.531Z,8.33
2019-01-17T02:44:13.423Z,8.35
2019-01-17T02:46:39.325Z,8.34
2019-01-17T02:49:05.194Z,8.20
2019-01-17T02:51:31.100Z,8.24
2019-01-17T02:53:56.963Z,8.24
2019-01-17T02:56:22.837Z,8.14
2019-01-17T02:58:48.857Z,8.12
2019-01-17T03:01:15.440Z,7.93
2019-01-17T03:03:41.300Z,7.76
2019-01-17T03:06:07.227Z,7.74
2019-01-17T03:08:33.119Z,7.51
2019-01-17T03:10:58.966Z,7.52
2019-01-17T03:13:24.835Z,7.42
2019-01-17T03:15:50.776Z,7.37
2019-01-17T03:18:16.651Z,7.18
2019-01-17T03:20:42.525Z,7.18
2019-01-17T03:23:08.418Z,7.00
2019-01-17T03:25:34.301Z,7.05
2019-01-17T03:28:00.225Z,7.07
2019-01-17T03:30:26.472Z,7.14
2019-01-17T03:32:52.380Z,7.09
2019-01-17T03:35:18.243Z,6.99
2019-01-17T03:37:44.117Z,7.10
2019-01-17T03:40:12.451Z,7.00
2019-01-17T03:42:38.427Z,6.97
2019-01-17T03:45:07.098Z,6.95
2019-01-17T03:47:33.000Z,7.05
2019-01-17T03:49:58.848Z,7.06
2019-01-17T03:52:24.757Z,7.09
2019-01-17T03:54:53.901Z,6.88
2019-01-17T03:57:18.403Z,6.90
2019-01-17T03:59:44.407Z,7.04
2019-01-17T04:02:10.718Z,7.01
2019-01-17T04:04:36.581Z,7.10
2019-01-17T04:07:02.459Z,7.04
2019-01-17T04:09:28.343Z,6.95
2019-01-17T04:11:54.187Z,6.85
2019-01-17T04:14:20.090Z,6.81
2019-01-17T04:16:45.981Z,6.84
2019-01-17T04:19:11.970Z,6.99
2019-01-17T04:21:37.846Z,7.01
2019-01-17T04:24:03.837Z,7.06
2019-01-17T04:26:29.691Z,6.94
2019-01-17T04:28:55.680Z,7.05
2019-01-17T04:31:21.580Z,7.03
2019-01-17T04:33:47.537Z,7.08
2019-01-17T04:36:13.451Z,7.02
2019-01-17T04:38:39.345Z,6.97
2019-01-17T04:41:05.280Z,7.01
2019-01-17T04:43:31.143Z,7.02
2019-01-17T04:45:57.041Z,6.97
2019-01-17T04:48:22.989Z,6.99
2019-01-17T04:50:48.855Z,7.01
2019-01-17T04:53:14.719Z,6.81
2019-01-17T04:55:40.705Z,6.79
2019-01-17T04:58:06.586Z,6.88
2019-01-17T05:00:32.569Z,6.88
2019-01-17T05:02:59.002Z,6.89
2019-01-17T05:05:24.878Z,6.86
2019-01-17T05:07:50.790Z,6.91
2019-01-17T05:10:16.714Z,6.85
2019-01-17T05:12:42.589Z,6.88
2019-01-17T05:15:09.377Z,6.77
2019-01-17T05:17:35.253Z,6.87
2019-01-17T05:20:01.256Z,6.91
2019-01-17T05:22:27.115Z,6.91
2019-01-17T05:24:52.997Z,6.81
2019-01-17T05:27:18.934Z,6.84
2019-01-17T05:29:44.819Z,6.94
2019-01-17T05:32:10.726Z,6.83
2019-01-17T05:34:39.557Z,6.74
2019-01-17T05:37:04.411Z,6.72
2019-01-17T05:39:30.291Z,6.55
2019-01-17T05:41:56.180Z,6.55
2019-01-17T05:44:22.082Z,6.77
2019-01-17T05:46:47.919Z,6.70
2019-01-17T05:49:13.816Z,6.59
2019-01-17T05:51:39.689Z,6.58
2019-01-17T05:54:05.888Z,6.71
2019-01-17T05:56:31.754Z,6.63
2019-01-17T05:58:57.649Z,6.49
2019-01-17T06:01:24.160Z,6.38
2019-01-17T06:03:50.844Z,6.45
2019-01-17T06:06:16.819Z,6.47
2019-01-17T06:08:42.705Z,6.41
2019-01-17T06:11:08.672Z,6.31
2019-01-17T06:13:34.651Z,6.15
2019-01-17T06:16:00.959Z,6.34
2019-01-17T06:18:26.875Z,6.22
2019-01-17T06:20:52.731Z,6.11
2019-01-17T06:23:18.706Z,6.07
2019-01-17T06:25:44.601Z,6.10
2019-01-17T06:28:10.514Z,6.18
2019-01-17T06:30:36.497Z,6.02
2019-01-17T06:33:02.387Z,6.07
2019-01-17T06:35:28.270Z,6.25
2019-01-17T06:37:54.141Z,6.32
2019-01-17T06:40:26.162Z,6.30
2019-01-17T06:42:52.063Z,6.18
2019-01-17T06:45:17.965Z,6.32
2019-01-17T06:47:43.935Z,6.17
2019-01-17T06:50:09.801Z,6.19
2019-01-17T06:52:35.689Z,6.36
2019-01-17T06:55:01.558Z,6.70
2019-01-17T06:57:27.532Z,7.72
2019-01-17T06:59:53.408Z,7.98
2019-01-17T07:02:19.650Z,8.05
2019-01-17T07:04:46.289Z,6.59
2019-01-17T07:07:12.217Z,6.53
2019-01-17T07:09:38.094Z,6.28
2019-01-17T07:12:03.969Z,6.39
2019-01-17T07:14:29.830Z,6.41
2019-01-17T07:16:55.697Z,6.33
2019-01-17T07:19:21.711Z,6.39
2019-01-17T07:21:47.591Z,6.58
2019-01-17T07:24:13.462Z,6.48
2019-01-17T07:26:39.358Z,6.43
2019-01-17T07:29:05.258Z,6.57
2019-01-17T07:31:31.140Z,6.64
2019-01-17T07:33:57.035Z,6.74
2019-01-17T07:36:22.885Z,6.71
2019-01-17T07:38:48.770Z,6.91
2019-01-17T07:41:14.660Z,6.63
2019-01-17T07:43:40.599Z,6.67
2019-01-17T07:46:06.451Z,6.79
2019-01-17T07:48:32.321Z,6.88
2019-01-17T07:50:58.220Z,6.86
2019-01-17T07:53:24.321Z,6.97
2019-01-17T07:55:50.199Z,7.05
2019-01-17T07:58:16.181Z,7.05
2019-01-17T08:00:42.068Z,7.14
2019-01-17T08:03:08.742Z,6.97
2019-01-17T08:05:35.403Z,6.96
2019-01-17T08:08:01.282Z,7.09
2019-01-17T08:10:27.157Z,7.03
2019-01-17T08:12:53.063Z,7.08
2019-01-17T08:15:18.911Z,7.02
2019-01-17T08:17:44.836Z,6.88
2019-01-17T08:20:19.052Z,7.00
2019-01-17T08:22:44.902Z,6.96
2019-01-17T08:25:10.979Z,6.76
2019-01-17T08:27:36.950Z,6.79
2019-01-17T08:30:06.682Z,7.08
2019-01-17T08:32:32.580Z,6.94
2019-01-17T08:34:58.458Z,6.88
2019-01-17T08:37:24.439Z,7.07
2019-01-17T08:39:50.356Z,7.09
2019-01-17T08:42:16.226Z,7.10
2019-01-17T08:44:42.155Z,7.25
2019-01-17T08:47:08.021Z,7.38
2019-01-17T08:49:33.986Z,7.33
2019-01-17T08:51:59.867Z,7.18
2019-01-17T08:54:25.876Z,7.17
2019-01-17T08:56:51.774Z,7.34
2019-01-17T08:59:17.647Z,7.35
2019-01-17T09:01:43.648Z,7.18
2019-01-17T09:04:09.645Z,7.10
2019-01-17T09:06:35.889Z,7.19
2019-01-17T09:09:01.977Z,7.17
2019-01-17T09:11:27.963Z,7.22
2019-01-17T09:13:53.816Z,7.31
2019-01-17T09:16:19.704Z,7.49
2019-01-17T09:18:45.567Z,7.45
2019-01-17T09:21:11.451Z,7.29
2019-01-17T09:23:37.327Z,7.08
2019-01-17T09:26:07.491Z,7.13
2019-01-17T09:28:30.974Z,6.97
2019-01-17T09:30:56.833Z,7.09
2019-01-17T09:33:22.692Z,6.79
2019-01-17T09:35:48.659Z,6.56
2019-01-17T09:38:14.535Z,6.60
2019-01-17T09:40:40.421Z,6.59
2019-01-17T09:43:06.642Z,6.50
2019-01-17T09:45:32.536Z,6.42
2019-01-17T09:47:58.517Z,6.66
2019-01-17T09:50:24.395Z,6.99
2019-01-17T09:52:50.381Z,7.02
2019-01-17T09:55:16.374Z,7.14
2019-01-17T09:57:42.207Z,7.27
2019-01-17T10:00:17.864Z,7.05
2019-01-17T10:02:43.768Z,6.79
2019-01-17T10:05:09.771Z,6.76
2019-01-17T10:07:36.010Z,6.79
2019-01-17T10:10:08.135Z,6.92
2019-01-17T10:12:34.045Z,6.95
2019-01-17T10:14:59.897Z,7.02
2019-01-17T10:17:29.576Z,7.01
2019-01-17T10:19:59.411Z,6.92
2019-01-17T10:22:35.001Z,7.14
2019-01-17T10:25:16.725Z,7.08
2019-01-17T10:27:58.239Z,6.81
2019-01-17T10:30:43.001Z,6.93
2019-01-17T10:33:21.379Z,6.97
2019-01-17T10:35:56.837Z,7.14
2019-01-17T10:38:38.521Z,7.13
2019-01-17T10:41:30.851Z,7.00
2019-01-17T10:44:09.484Z,7.09
2019-01-17T10:46:48.038Z,7.03
2019-01-17T10:49:23.508Z,7.13
2019-01-17T10:51:56.254Z,6.75
2019-01-17T10:54:44.307Z,6.66
2019-01-17T10:57:16.930Z,6.58
2019-01-17T10:59:52.540Z,6.53
2019-01-17T11:02:37.584Z,6.70
2019-01-17T11:05:22.651Z,7.01
2019-01-17T11:08:11.638Z,7.23
2019-01-17T11:10:56.407Z,7.39
2019-01-17T11:13:38.135Z,7.15
2019-01-17T11:16:24.397Z,7.17
2019-01-17T11:19:12.336Z,7.15
2019-01-17T11:21:54.026Z,7.16
2019-01-17T11:24:44.413Z,7.07
2019-01-17T11:27:25.922Z,6.95
2019-01-17T11:30:01.939Z,7.07
2019-01-17T11:32:49.437Z,7.09
2019-01-17T11:35:25.172Z,6.93
2019-01-17T11:37:57.888Z,6.90
2019-01-17T11:40:50.823Z,6.96
2019-01-17T11:43:29.622Z,7.06
2019-01-17T11:46:11.261Z,7.19
2019-01-17T11:49:03.983Z,7.00
2019-01-17T11:51:33.667Z,7.06
2019-01-17T11:54:12.168Z,6.87
2019-01-17T11:56:47.802Z,6.93
2019-01-17T11:59:23.216Z,6.88
2019-01-17T12:02:06.267Z,6.62
2019-01-17T12:04:33.914Z,6.53
2019-01-17T12:07:01.968Z,6.67
2019-01-17T12:09:28.477Z,6.47
2019-01-17T12:11:54.440Z,6.21
2019-01-17T12:14:20.325Z,6.13
2019-01-17T12:16:46.226Z,6.01
2019-01-17T12:19:12.075Z,5.84
2019-01-17T12:21:37.954Z,5.84
2019-01-17T12:24:03.963Z,5.98
2019-01-17T12:26:29.853Z,6.07
2019-01-17T12:28:55.763Z,6.36
2019-01-17T12:31:21.692Z,6.59
2019-01-17T12:33:47.516Z,6.38
2019-01-17T12:36:13.415Z,5.82
2019-01-17T12:38:39.257Z,5.81
2019-01-17T12:41:05.230Z,6.10
2019-01-17T12:43:31.132Z,6.21
2019-01-17T12:45:57.156Z,6.11
2019-01-17T12:48:23.055Z,6.12
2019-01-17T12:50:48.896Z,6.17
2019-01-17T12:53:14.811Z,6.27
2019-01-17T12:55:40.707Z,6.16
2019-01-17T12:58:06.578Z,6.23
2019-01-17T13:00:32.790Z,6.07
2019-01-17T13:02:58.667Z,6.00
2019-01-17T13:05:24.539Z,6.33
2019-01-17T13:07:50.809Z,6.84
2019-01-17T13:10:17.629Z,6.99
2019-01-17T13:12:43.501Z,6.89
2019-01-17T13:15:11.087Z,6.88
2019-01-17T13:17:36.959Z,7.12
2019-01-17T13:20:06.124Z,7.28
2019-01-17T13:22:32.117Z,7.31
2019-01-17T13:24:58.046Z,7.31
2019-01-17T13:27:23.987Z,7.13
2019-01-17T13:29:49.869Z,6.93
2019-01-17T13:32:15.838Z,6.77
2019-01-17T13:34:41.706Z,6.77
2019-01-17T13:37:07.582Z,7.00
2019-01-17T13:39:33.450Z,7.23
2019-01-17T13:41:59.331Z,7.07
2019-01-17T13:44:25.240Z,7.16
2019-01-17T13:46:51.100Z,6.68
2019-01-17T13:49:17.091Z,6.57
2019-01-17T13:51:42.929Z,6.56
2019-01-17T13:54:08.897Z,6.52
2019-01-17T13:56:34.758Z,6.72
2019-01-17T13:59:00.747Z,6.77
2019-01-17T14:01:26.660Z,6.75
2019-01-17T14:03:52.524Z,6.84
2019-01-17T14:06:18.416Z,6.39
2019-01-17T14:08:44.719Z,6.25
2019-01-17T14:11:11.268Z,6.68
2019-01-17T14:13:37.225Z,6.63
2019-01-17T14:16:03.291Z,6.30
2019-01-17T14:18:29.153Z,6.37
2019-01-17T14:20:55.040Z,6.45
2019-01-17T14:23:21.035Z,6.38
2019-01-17T14:25:46.893Z,6.53
2019-01-17T14:28:12.779Z,6.48
2019-01-17T14:30:38.723Z,6.47
2019-01-17T14:33:04.738Z,6.47
2019-01-17T14:35:30.637Z,6.44
2019-01-17T14:37:56.817Z,6.41
2019-01-17T14:40:22.718Z,6.58
2019-01-17T14:42:48.546Z,6.31
2019-01-17T14:45:19.394Z,6.34
2019-01-17T14:47:45.271Z,6.56
2019-01-17T14:50:14.030Z,6.69
2019-01-17T14:52:39.929Z,6.46
2019-01-17T14:55:06.415Z,6.36
2019-01-17T14:57:32.299Z,6.29
2019-01-17T14:59:58.166Z,6.20
2019-01-17T15:02:24.052Z,6.32
2019-01-17T15:04:49.943Z,6.32
2019-01-17T15:07:15.817Z,6.22
2019-01-17T15:09:41.815Z,6.18
2019-01-17T15:12:07.992Z,6.31
2019-01-17T15:14:33.899Z,6.25
2019-01-17T15:16:59.819Z,6.30
2019-01-17T15:19:25.795Z,6.26
2019-01-17T15:21:51.755Z,6.10
2019-01-17T15:24:17.576Z,6.06
2019-01-17T15:26:43.461Z,6.19
2019-01-17T15:29:09.433Z,6.26
2019-01-17T15:31:35.319Z,6.10
2019-01-17T15:34:01.214Z,6.12
2019-01-17T15:36:27.194Z,6.07
2019-01-17T15:38:53.061Z,6.09
2019-01-17T15:41:18.929Z,6.11
2019-01-17T15:43:44.822Z,6.20
2019-01-17T15:46:10.704Z,6.03
2019-01-17T15:48:36.559Z,6.11
2019-01-17T15:51:02.413Z,5.89
2019-01-17T15:53:28.299Z,5.90
2019-01-17T15:55:54.178Z,5.93
2019-01-17T15:58:20.065Z,5.92
2019-01-17T16:00:45.937Z,5.85
2019-01-17T16:03:11.815Z,5.92
2019-01-17T16:05:37.742Z,6.02
2019-01-17T16:08:03.633Z,6.18
2019-01-17T16:10:29.949Z,6.17
2019-01-17T16:12:56.075Z,6.28
2019-01-17T16:15:23.646Z,6.18
2019-01-17T16:17:49.537Z,6.23
2019-01-17T16:20:15.911Z,6.30
2019-01-17T16:22:41.849Z,6.29
2019-01-17T16:25:10.053Z,6.33
2019-01-17T16:27:41.854Z,6.19
2019-01-17T16:30:10.659Z,6.16
2019-01-17T16:32:36.687Z,6.19
2019-01-17T16:35:02.643Z,6.30
2019-01-17T16:37:28.500Z,6.42
2019-01-17T16:39:54.510Z,6.34
2019-01-17T16:42:20.380Z,6.37
2019-01-17T16:44:46.295Z,6.41
2019-01-17T16:47:12.153Z,6.34
2019-01-17T16:49:38.050Z,6.25
2019-01-17T16:52:04.046Z,6.28
2019-01-17T16:54:29.897Z,6.41
2019-01-17T16:56:55.796Z,6.37
2019-01-17T16:59:21.699Z,6.38
2019-01-17T17:01:47.589Z,6.38
2019-01-17T17:04:13.436Z,6.40
2019-01-17T17:06:39.303Z,6.40
2019-01-17T17:09:06.271Z,6.34
2019-01-17T17:11:32.592Z,6.37
2019-01-17T17:13:59.537Z,6.26
2019-01-17T17:16:25.378Z,6.13
2019-01-17T17:18:51.275Z,6.11
2019-01-17T17:21:17.188Z,5.93
2019-01-17T17:23:43.049Z,6.00
2019-01-17T17:26:08.926Z,5.74
2019-01-17T17:28:34.794Z,5.75
2019-01-17T17:31:00.682Z,5.65
2019-01-17T17:33:26.562Z,5.76
2019-01-17T17:35:52.454Z,5.89
2019-01-17T17:38:18.318Z,5.67
2019-01-17T17:40:44.238Z,5.61
2019-01-17T17:43:10.176Z,5.65
2019-01-17T17:45:36.060Z,5.61
2019-01-17T17:48:01.957Z,5.55
2019-01-17T17:50:27.824Z,5.65
2019-01-17T17:52:53.684Z,5.73
2019-01-17T17:55:19.584Z,5.76
2019-01-17T17:57:45.472Z,5.87
2019-01-17T18:00:19.034Z,5.85
2019-01-17T18:02:45.317Z,5.89
2019-01-17T18:05:11.219Z,5.85
2019-01-17T18:07:37.118Z,5.94
2019-01-17T18:10:06.791Z,5.82
2019-01-17T18:12:33.146Z,5.87
2019-01-17T18:15:00.613Z,5.83
2019-01-17T18:17:26.509Z,5.76
2019-01-17T18:19:52.382Z,5.73
2019-01-17T18:22:18.277Z,5.77
2019-01-17T18:24:44.193Z,5.81
2019-01-17T18:27:10.060Z,5.76
2019-01-17T18:29:35.956Z,5.89
2019-01-17T18:32:02.411Z,6.29
2019-01-17T18:34:28.380Z,6.80
2019-01-17T18:36:54.335Z,6.43
2019-01-17T18:39:20.247Z,6.94
2019-01-17T18:41:46.170Z,7.04
2019-01-17T18:44:12.055Z,6.38
2019-01-17T18:46:38.085Z,6.35
2019-01-17T18:49:03.907Z,6.20
2019-01-17T18:51:29.889Z,6.11
2019-01-17T18:53:55.796Z,6.43
2019-01-17T18:56:21.656Z,6.33
2019-01-17T18:58:47.696Z,6.30
2019-01-17T19:01:13.565Z,6.17
2019-01-17T19:03:39.531Z,6.21
2019-01-17T19:06:05.716Z,6.09
2019-01-17T19:08:31.602Z,6.07
2019-01-17T19:10:57.731Z,6.02
2019-01-17T19:13:23.671Z,6.17
2019-01-17T19:15:49.982Z,5.95
2019-01-17T19:18:15.886Z,5.90
2019-01-17T19:20:41.780Z,5.81
2019-01-17T19:23:07.662Z,6.11
2019-01-17T19:25:33.526Z,6.00
2019-01-17T19:28:00.212Z,6.02
2019-01-17T19:30:27.580Z,5.93
2019-01-17T19:32:53.459Z,6.03
2019-01-17T19:35:19.333Z,6.03
2019-01-17T19:37:45.345Z,5.93
2019-01-17T19:40:15.544Z,5.79
2019-01-17T19:42:41.660Z,5.75
2019-01-17T19:45:09.658Z,5.75
2019-01-17T19:47:35.605Z,5.86
2019-01-17T19:50:01.696Z,5.74
2019-01-17T19:52:27.618Z,5.77
2019-01-17T19:54:53.460Z,5.88
2019-01-17T19:57:19.347Z,5.93
2019-01-17T19:59:45.236Z,5.90
2019-01-17T20:02:11.110Z,5.78
2019-01-17T20:04:41.738Z,5.87
2019-01-17T20:07:04.757Z,5.78
2019-01-17T20:09:30.777Z,5.70
2019-01-17T20:11:56.639Z,5.73
2019-01-17T20:14:22.652Z,5.87
2019-01-17T20:16:48.832Z,5.93
2019-01-17T20:19:14.727Z,5.83
2019-01-17T20:21:40.608Z,5.80
2019-01-17T20:24:06.471Z,5.83
2019-01-17T20:26:32.336Z,5.88
2019-01-17T20:28:58.246Z,5.75
2019-01-17T20:31:24.154Z,5.80
2019-01-17T20:33:50.466Z,5.88
2019-01-17T20:36:16.472Z,5.78
2019-01-17T20:38:42.288Z,5.84
2019-01-17T20:41:08.432Z,5.97
2019-01-17T20:43:34.325Z,6.04
2019-01-17T20:46:00.206Z,5.99
2019-01-17T20:48:26.331Z,5.90
2019-01-17T20:50:52.229Z,6.01
2019-01-17T20:53:18.105Z,6.05
2019-01-17T20:55:43.981Z,5.99
2019-01-17T20:58:09.887Z,5.95
2019-01-17T21:00:43.062Z,5.89
2019-01-17T21:03:10.517Z,5.96
2019-01-17T21:05:36.518Z,5.83
2019-01-17T21:08:02.396Z,5.84
2019-01-17T21:10:28.291Z,5.78
2019-01-17T21:12:54.306Z,5.83
2019-01-17T21:15:21.100Z,5.85
2019-01-17T21:17:47.603Z,5.96
2019-01-17T21:20:13.603Z,5.97
2019-01-17T21:22:39.461Z,6.00
2019-01-17T21:25:09.082Z,6.08
2019-01-17T21:27:35.055Z,6.13
2019-01-17T21:30:00.962Z,5.98
2019-01-17T21:32:27.092Z,6.07
2019-01-17T21:34:53.016Z,6.09
2019-01-17T21:37:19.004Z,6.10
2019-01-17T21:39:44.967Z,6.02
2019-01-17T21:42:10.861Z,6.02
2019-01-17T21:44:37.801Z,6.13
2019-01-17T21:47:03.690Z,6.14
2019-01-17T21:49:29.586Z,6.27
2019-01-17T21:51:55.434Z,6.33
2019-01-17T21:54:21.324Z,6.37
2019-01-17T21:56:47.177Z,6.33
2019-01-17T21:59:13.048Z,6.27
2019-01-17T22:01:38.922Z,6.27
2019-01-17T22:04:04.833Z,6.36
2019-01-17T22:06:30.814Z,6.43
2019-01-17T22:08:56.770Z,6.43
2019-01-17T22:11:22.638Z,6.43
2019-01-17T22:13:48.537Z,6.44
2019-01-17T22:16:14.862Z,6.27
2019-01-17T22:18:41.617Z,6.33
2019-01-17T22:21:07.487Z,6.38
2019-01-17T22:23:33.482Z,6.37
2019-01-17T22:25:59.307Z,6.39
2019-01-17T22:28:25.207Z,6.37
2019-01-17T22:30:51.078Z,6.39
2019-01-17T22:33:17.049Z,6.37
2019-01-17T22:35:42.929Z,6.32
2019-01-17T22:38:09.189Z,6.44
2019-01-17T22:40:36.150Z,6.27
2019-01-17T22:43:01.999Z,6.08
2019-01-17T22:45:29.442Z,6.02
2019-01-17T22:47:55.468Z,6.09
2019-01-17T22:50:21.343Z,6.09
2019-01-17T22:52:48.718Z,6.14
2019-01-17T22:55:14.574Z,6.14
2019-01-17T22:57:40.561Z,6.06
2019-01-17T23:00:50.514Z,6.19
2019-01-17T23:03:18.186Z,6.17
2019-01-17T23:05:44.363Z,6.04
2019-01-17T23:08:10.245Z,6.00
2019-01-17T23:10:36.214Z,6.03
2019-01-17T23:13:02.124Z,5.98
2019-01-17T23:15:28.121Z,6.08
2019-01-17T23:17:54.595Z,5.88
2019-01-17T23:20:21.142Z,6.01
2019-01-17T23:22:47.048Z,5.73
2019-01-17T23:25:12.903Z,5.61
2019-01-17T23:27:38.774Z,5.70
2019-01-17T23:30:08.485Z,5.57
2019-01-17T23:32:34.379Z,5.49
2019-01-17T23:35:00.318Z,5.57
2019-01-17T23:37:26.155Z,5.57
2019-01-17T23:39:52.025Z,5.61
2019-01-17T23:42:17.904Z,5.57
2019-01-17T23:44:43.768Z,5.65
2019-01-17T23:47:09.681Z,5.70
2019-01-17T23:49:35.655Z,5.61
2019-01-17T23:52:01.559Z,5.68
2019-01-17T23:54:27.475Z,5.56
2019-01-17T23:56:53.422Z,5.65
2019-01-17T23:59:22.767Z,5.77
